sensor_id;sensor_type;location;lat;lon;timestamp;pressure;altitude;pressure_sealevel;temperature;humidity
54144;BME280;40050;47.324;18.792;2023-12-28T00:00:43;1012.08;;;4.57;69.59
54144;BME280;40050;47.324;18.792;2023-12-28T00:02:44;1012.02;;;4.55;69.52
54144;BME280;40050;47.324;18.792;2023-12-28T00:04:45;1012.08;;;4.59;69.45
54144;BME280;40050;47.324;18.792;2023-12-28T00:06:55;1012.06;;;4.57;69.46
54144;BME280;40050;47.324;18.792;2023-12-28T00:08:56;1012.13;;;4.59;69.60
54144;BME280;40050;47.324;18.792;2023-12-28T00:10:57;1012.16;;;4.59;69.54
54144;BME280;40050;47.324;18.792;2023-12-28T00:12:58;1012.21;;;4.60;69.63
54144;BME280;40050;47.324;18.792;2023-12-28T00:14:59;1012.17;;;4.60;69.61
54144;BME280;40050;47.324;18.792;2023-12-28T00:17:00;1012.06;;;4.57;70.10
54144;BME280;40050;47.324;18.792;2023-12-28T00:19:01;1012.14;;;4.57;70.27
54144;BME280;40050;47.324;18.792;2023-12-28T00:21:01;1012.08;;;4.57;70.12
54144;BME280;40050;47.324;18.792;2023-12-28T00:23:03;1012.17;;;4.59;70.33
54144;BME280;40050;47.324;18.792;2023-12-28T00:25:04;1012.13;;;4.56;70.39
54144;BME280;40050;47.324;18.792;2023-12-28T00:27:05;1012.18;;;4.59;70.21
54144;BME280;40050;47.324;18.792;2023-12-28T00:29:06;1012.07;;;4.55;70.18
54144;BME280;40050;47.324;18.792;2023-12-28T00:31:07;1012.13;;;4.58;70.24
54144;BME280;40050;47.324;18.792;2023-12-28T00:33:09;1012.08;;;4.53;70.25
54144;BME280;40050;47.324;18.792;2023-12-28T00:35:10;1012.20;;;4.57;70.15
54144;BME280;40050;47.324;18.792;2023-12-28T00:37:11;1012.19;;;4.58;70.17
54144;BME280;40050;47.324;18.792;2023-12-28T00:39:12;1012.13;;;4.53;70.16
54144;BME280;40050;47.324;18.792;2023-12-28T00:41:13;1012.13;;;4.54;70.32
54144;BME280;40050;47.324;18.792;2023-12-28T00:43:14;1012.17;;;4.55;70.42
54144;BME280;40050;47.324;18.792;2023-12-28T00:45:15;1012.13;;;4.54;70.66
54144;BME280;40050;47.324;18.792;2023-12-28T00:47:16;1012.21;;;4.58;70.34
54144;BME280;40050;47.324;18.792;2023-12-28T00:49:17;1012.27;;;4.56;70.29
54144;BME280;40050;47.324;18.792;2023-12-28T00:51:18;1012.31;;;4.56;70.17
54144;BME280;40050;47.324;18.792;2023-12-28T00:53:18;1012.31;;;4.55;70.27
54144;BME280;40050;47.324;18.792;2023-12-28T00:55:19;1012.25;;;4.54;70.23
54144;BME280;40050;47.324;18.792;2023-12-28T00:57:20;1012.19;;;4.50;70.23
54144;BME280;40050;47.324;18.792;2023-12-28T00:59:21;1012.24;;;4.53;70.20
54144;BME280;40050;47.324;18.792;2023-12-28T01:01:22;1012.20;;;4.50;70.16
54144;BME280;40050;47.324;18.792;2023-12-28T01:03:23;1012.28;;;4.56;70.66
54144;BME280;40050;47.324;18.792;2023-12-28T01:05:24;1012.27;;;4.49;70.87
54144;BME280;40050;47.324;18.792;2023-12-28T01:07:25;1012.24;;;4.51;70.72
54144;BME280;40050;47.324;18.792;2023-12-28T01:09:26;1012.19;;;4.48;70.60
54144;BME280;40050;47.324;18.792;2023-12-28T01:11:27;1012.24;;;4.50;70.53
54144;BME280;40050;47.324;18.792;2023-12-28T01:13:28;1012.16;;;4.47;70.49
54144;BME280;40050;47.324;18.792;2023-12-28T01:15:29;1012.20;;;4.49;70.43
54144;BME280;40050;47.324;18.792;2023-12-28T01:17:30;1012.22;;;4.53;70.45
54144;BME280;40050;47.324;18.792;2023-12-28T01:19:30;1012.26;;;4.53;70.39
54144;BME280;40050;47.324;18.792;2023-12-28T01:21:32;1012.23;;;4.51;70.37
54144;BME280;40050;47.324;18.792;2023-12-28T01:23:33;1012.26;;;4.52;70.36
54144;BME280;40050;47.324;18.792;2023-12-28T01:25:34;1012.19;;;4.53;70.29
54144;BME280;40050;47.324;18.792;2023-12-28T01:27:34;1012.20;;;4.53;70.26
54144;BME280;40050;47.324;18.792;2023-12-28T01:29:35;1012.16;;;4.53;70.33
54144;BME280;40050;47.324;18.792;2023-12-28T01:31:36;1012.03;;;4.49;70.36
54144;BME280;40050;47.324;18.792;2023-12-28T01:33:37;1012.09;;;4.53;70.23
54144;BME280;40050;47.324;18.792;2023-12-28T01:35:38;1012.08;;;4.53;70.39
54144;BME280;40050;47.324;18.792;2023-12-28T01:37:39;1012.05;;;4.51;70.57
54144;BME280;40050;47.324;18.792;2023-12-28T01:39:40;1012.21;;;4.58;70.37
54144;BME280;40050;47.324;18.792;2023-12-28T01:41:41;1012.09;;;4.48;70.55
54144;BME280;40050;47.324;18.792;2023-12-28T01:43:44;1012.11;;;4.49;70.70
54144;BME280;40050;47.324;18.792;2023-12-28T01:45:45;1012.03;;;4.44;71.16
54144;BME280;40050;47.324;18.792;2023-12-28T01:47:46;1012.01;;;4.42;71.07
54144;BME280;40050;47.324;18.792;2023-12-28T01:49:49;1011.99;;;4.41;70.90
54144;BME280;40050;47.324;18.792;2023-12-28T01:51:50;1012.04;;;4.43;70.80
54144;BME280;40050;47.324;18.792;2023-12-28T01:53:51;1011.96;;;4.43;70.69
54144;BME280;40050;47.324;18.792;2023-12-28T01:55:52;1011.90;;;4.45;70.68
54144;BME280;40050;47.324;18.792;2023-12-28T01:57:54;1011.86;;;4.47;70.58
54144;BME280;40050;47.324;18.792;2023-12-28T01:59:55;1011.73;;;4.42;70.74
54144;BME280;40050;47.324;18.792;2023-12-28T02:01:58;1011.74;;;4.44;70.69
54144;BME280;40050;47.324;18.792;2023-12-28T02:03:58;1011.74;;;4.42;70.56
54144;BME280;40050;47.324;18.792;2023-12-28T02:06:00;1011.77;;;4.43;70.48
54144;BME280;40050;47.324;18.792;2023-12-28T02:08:01;1011.84;;;4.45;70.68
54144;BME280;40050;47.324;18.792;2023-12-28T02:10:02;1011.80;;;4.45;70.74
54144;BME280;40050;47.324;18.792;2023-12-28T02:12:03;1011.75;;;4.44;70.70
54144;BME280;40050;47.324;18.792;2023-12-28T02:14:04;1011.76;;;4.45;70.66
54144;BME280;40050;47.324;18.792;2023-12-28T02:16:52;1011.72;;;4.44;70.67
54144;BME280;40050;47.324;18.792;2023-12-28T02:18:22;1011.67;;;4.44;70.63
54144;BME280;40050;47.324;18.792;2023-12-28T02:20:24;1011.68;;;4.43;70.62
54144;BME280;40050;47.324;18.792;2023-12-28T02:22:26;1011.69;;;4.43;70.48
54144;BME280;40050;47.324;18.792;2023-12-28T02:24:27;1011.65;;;4.41;70.42
54144;BME280;40050;47.324;18.792;2023-12-28T02:26:28;1011.64;;;4.36;70.53
54144;BME280;40050;47.324;18.792;2023-12-28T02:28:29;1011.54;;;4.35;70.48
54144;BME280;40050;47.324;18.792;2023-12-28T02:30:30;1011.50;;;4.35;70.44
54144;BME280;40050;47.324;18.792;2023-12-28T02:34:50;1011.54;;;4.32;70.46
54144;BME280;40050;47.324;18.792;2023-12-28T02:36:55;1011.52;;;4.28;70.48
54144;BME280;40050;47.324;18.792;2023-12-28T02:38:58;1011.50;;;4.27;70.50
54144;BME280;40050;47.324;18.792;2023-12-28T02:45:07;1011.41;;;4.27;70.37
54144;BME280;40050;47.324;18.792;2023-12-28T02:47:09;1011.41;;;4.29;70.19
54144;BME280;40050;47.324;18.792;2023-12-28T02:49:10;1011.44;;;4.30;70.16
54144;BME280;40050;47.324;18.792;2023-12-28T02:51:11;1011.40;;;4.27;70.23
54144;BME280;40050;47.324;18.792;2023-12-28T02:53:12;1011.35;;;4.21;70.07
54144;BME280;40050;47.324;18.792;2023-12-28T02:55:13;1011.35;;;4.19;70.03
54144;BME280;40050;47.324;18.792;2023-12-28T02:57:14;1011.37;;;4.19;70.26
54144;BME280;40050;47.324;18.792;2023-12-28T02:59:15;1011.40;;;4.21;70.31
54144;BME280;40050;47.324;18.792;2023-12-28T03:01:15;1011.37;;;4.20;70.26
54144;BME280;40050;47.324;18.792;2023-12-28T03:03:16;1011.34;;;4.20;70.19
54144;BME280;40050;47.324;18.792;2023-12-28T03:05:17;1011.32;;;4.18;70.19
54144;BME280;40050;47.324;18.792;2023-12-28T03:07:18;1011.29;;;4.16;70.16
54144;BME280;40050;47.324;18.792;2023-12-28T03:09:19;1011.19;;;4.12;70.18
54144;BME280;40050;47.324;18.792;2023-12-28T03:11:20;1011.23;;;4.16;70.32
54144;BME280;40050;47.324;18.792;2023-12-28T03:13:21;1011.19;;;4.14;70.37
54144;BME280;40050;47.324;18.792;2023-12-28T03:15:22;1011.24;;;4.14;70.38
54144;BME280;40050;47.324;18.792;2023-12-28T03:17:23;1011.22;;;4.15;70.33
54144;BME280;40050;47.324;18.792;2023-12-28T03:19:24;1011.21;;;4.14;70.29
54144;BME280;40050;47.324;18.792;2023-12-28T03:21:24;1011.20;;;4.15;70.17
54144;BME280;40050;47.324;18.792;2023-12-28T03:23:25;1011.12;;;4.11;70.15
54144;BME280;40050;47.324;18.792;2023-12-28T03:25:26;1011.17;;;4.13;70.26
54144;BME280;40050;47.324;18.792;2023-12-28T03:27:27;1010.82;;;3.95;70.24
54144;BME280;40050;47.324;18.792;2023-12-28T03:29:28;1011.09;;;4.16;70.23
54144;BME280;40050;47.324;18.792;2023-12-28T03:31:29;1011.06;;;4.16;70.20
54144;BME280;40050;47.324;18.792;2023-12-28T03:33:30;1010.94;;;4.12;70.19
54144;BME280;40050;47.324;18.792;2023-12-28T03:35:31;1010.97;;;4.14;70.08
54144;BME280;40050;47.324;18.792;2023-12-28T03:37:32;1010.84;;;4.08;70.02
54144;BME280;40050;47.324;18.792;2023-12-28T03:39:32;1010.85;;;4.11;70.04
54144;BME280;40050;47.324;18.792;2023-12-28T03:41:33;1010.84;;;4.13;69.98
54144;BME280;40050;47.324;18.792;2023-12-28T03:43:34;1010.88;;;4.12;69.89
54144;BME280;40050;47.324;18.792;2023-12-28T03:45:35;1010.95;;;4.11;69.97
54144;BME280;40050;47.324;18.792;2023-12-28T03:47:37;1010.99;;;4.10;70.14
54144;BME280;40050;47.324;18.792;2023-12-28T03:49:38;1010.88;;;4.06;70.15
54144;BME280;40050;47.324;18.792;2023-12-28T03:51:39;1010.91;;;4.08;70.22
54144;BME280;40050;47.324;18.792;2023-12-28T03:53:40;1010.86;;;4.05;70.18
54144;BME280;40050;47.324;18.792;2023-12-28T03:55:41;1010.80;;;4.04;70.13
54144;BME280;40050;47.324;18.792;2023-12-28T03:57:42;1010.83;;;4.05;70.28
54144;BME280;40050;47.324;18.792;2023-12-28T03:59:43;1010.83;;;4.05;70.64
54144;BME280;40050;47.324;18.792;2023-12-28T04:01:44;1010.81;;;4.04;71.24
54144;BME280;40050;47.324;18.792;2023-12-28T04:03:45;1010.83;;;4.05;71.50
54144;BME280;40050;47.324;18.792;2023-12-28T04:05:46;1010.79;;;4.03;71.59
54144;BME280;40050;47.324;18.792;2023-12-28T04:07:47;1010.79;;;4.06;71.59
54144;BME280;40050;47.324;18.792;2023-12-28T04:09:48;1010.85;;;4.13;71.39
54144;BME280;40050;47.324;18.792;2023-12-28T04:11:49;1010.82;;;4.09;71.18
54144;BME280;40050;47.324;18.792;2023-12-28T04:13:50;1010.80;;;4.11;70.99
54144;BME280;40050;47.324;18.792;2023-12-28T04:15:51;1010.78;;;4.10;70.90
54144;BME280;40050;47.324;18.792;2023-12-28T04:17:51;1010.79;;;4.10;70.82
54144;BME280;40050;47.324;18.792;2023-12-28T04:19:52;1010.78;;;4.08;70.71
54144;BME280;40050;47.324;18.792;2023-12-28T04:21:53;1010.76;;;4.09;70.83
54144;BME280;40050;47.324;18.792;2023-12-28T04:23:54;1010.70;;;4.04;71.14
54144;BME280;40050;47.324;18.792;2023-12-28T04:25:55;1010.79;;;4.05;71.32
54144;BME280;40050;47.324;18.792;2023-12-28T04:27:58;1010.72;;;4.04;71.67
54144;BME280;40050;47.324;18.792;2023-12-28T04:29:59;1010.74;;;4.05;71.92
54144;BME280;40050;47.324;18.792;2023-12-28T04:32:00;1010.71;;;4.06;72.10
54144;BME280;40050;47.324;18.792;2023-12-28T04:34:01;1010.68;;;4.08;72.18
54144;BME280;40050;47.324;18.792;2023-12-28T04:36:02;1010.62;;;4.08;72.37
54144;BME280;40050;47.324;18.792;2023-12-28T04:38:03;1010.64;;;4.07;72.33
54144;BME280;40050;47.324;18.792;2023-12-28T04:40:04;1010.54;;;4.04;72.44
54144;BME280;40050;47.324;18.792;2023-12-28T04:42:05;1010.55;;;4.04;72.32
54144;BME280;40050;47.324;18.792;2023-12-28T04:44:06;1010.55;;;4.09;72.37
54144;BME280;40050;47.324;18.792;2023-12-28T04:46:07;1010.51;;;4.08;72.42
54144;BME280;40050;47.324;18.792;2023-12-28T04:48:08;1010.50;;;4.07;72.32
54144;BME280;40050;47.324;18.792;2023-12-28T04:50:09;1010.45;;;4.03;72.39
54144;BME280;40050;47.324;18.792;2023-12-28T04:52:10;1010.46;;;4.04;72.45
54144;BME280;40050;47.324;18.792;2023-12-28T04:54:11;1010.50;;;4.03;72.45
54144;BME280;40050;47.324;18.792;2023-12-28T04:56:12;1010.51;;;4.04;72.54
54144;BME280;40050;47.324;18.792;2023-12-28T04:58:12;1010.54;;;4.03;72.59
54144;BME280;40050;47.324;18.792;2023-12-28T05:00:14;1010.49;;;4.03;72.75
54144;BME280;40050;47.324;18.792;2023-12-28T05:02:15;1010.47;;;4.01;72.75
54144;BME280;40050;47.324;18.792;2023-12-28T05:04:16;1010.42;;;3.98;72.80
54144;BME280;40050;47.324;18.792;2023-12-28T05:06:17;1010.51;;;4.02;72.79
54144;BME280;40050;47.324;18.792;2023-12-28T05:08:18;1010.48;;;4.00;72.56
54144;BME280;40050;47.324;18.792;2023-12-28T05:10:18;1010.53;;;4.03;72.03
54144;BME280;40050;47.324;18.792;2023-12-28T05:12:19;1010.55;;;4.02;72.08
54144;BME280;40050;47.324;18.792;2023-12-28T05:14:20;1010.54;;;4.01;71.73
54144;BME280;40050;47.324;18.792;2023-12-28T05:16:21;1010.64;;;4.01;71.60
54144;BME280;40050;47.324;18.792;2023-12-28T05:18:22;1010.62;;;4.00;71.31
54144;BME280;40050;47.324;18.792;2023-12-28T05:20:23;1010.60;;;3.99;71.21
54144;BME280;40050;47.324;18.792;2023-12-28T05:22:24;1010.55;;;3.95;71.42
54144;BME280;40050;47.324;18.792;2023-12-28T05:24:25;1010.58;;;3.98;71.05
54144;BME280;40050;47.324;18.792;2023-12-28T05:26:26;1010.52;;;3.94;70.70
54144;BME280;40050;47.324;18.792;2023-12-28T05:28:26;1010.56;;;3.93;70.78
54144;BME280;40050;47.324;18.792;2023-12-28T05:30:27;1010.55;;;3.91;71.07
54144;BME280;40050;47.324;18.792;2023-12-28T05:32:28;1010.65;;;3.91;71.43
54144;BME280;40050;47.324;18.792;2023-12-28T05:34:29;1010.74;;;3.93;71.63
54144;BME280;40050;47.324;18.792;2023-12-28T05:36:30;1010.72;;;3.92;71.68
54144;BME280;40050;47.324;18.792;2023-12-28T05:38:31;1010.69;;;3.93;71.82
54144;BME280;40050;47.324;18.792;2023-12-28T05:40:32;1010.66;;;3.94;71.83
54144;BME280;40050;47.324;18.792;2023-12-28T05:42:33;1010.69;;;3.88;71.90
54144;BME280;40050;47.324;18.792;2023-12-28T05:44:34;1010.64;;;3.83;71.91
54144;BME280;40050;47.324;18.792;2023-12-28T05:46:35;1010.72;;;3.85;72.00
54144;BME280;40050;47.324;18.792;2023-12-28T05:48:36;1010.73;;;3.86;71.92
54144;BME280;40050;47.324;18.792;2023-12-28T05:50:36;1010.67;;;3.86;71.90
54144;BME280;40050;47.324;18.792;2023-12-28T05:52:37;1010.64;;;3.86;71.82
54144;BME280;40050;47.324;18.792;2023-12-28T05:54:38;1010.64;;;3.88;71.50
54144;BME280;40050;47.324;18.792;2023-12-28T05:56:39;1010.56;;;3.84;71.41
54144;BME280;40050;47.324;18.792;2023-12-28T05:58:40;1010.64;;;3.87;71.24
54144;BME280;40050;47.324;18.792;2023-12-28T06:00:41;1010.66;;;3.87;70.83
54144;BME280;40050;47.324;18.792;2023-12-28T06:02:42;1010.68;;;3.81;70.48
54144;BME280;40050;47.324;18.792;2023-12-28T06:04:43;1010.70;;;3.76;70.52
54144;BME280;40050;47.324;18.792;2023-12-28T06:06:44;1010.72;;;3.75;70.26
54144;BME280;40050;47.324;18.792;2023-12-28T06:08:44;1010.75;;;3.77;70.31
54144;BME280;40050;47.324;18.792;2023-12-28T06:10:45;1010.82;;;3.74;70.58
54144;BME280;40050;47.324;18.792;2023-12-28T06:12:46;1010.64;;;3.70;70.76
54144;BME280;40050;47.324;18.792;2023-12-28T06:14:47;1010.65;;;3.72;70.72
54144;BME280;40050;47.324;18.792;2023-12-28T06:16:48;1010.67;;;3.70;70.79
54144;BME280;40050;47.324;18.792;2023-12-28T06:18:49;1010.56;;;3.65;70.74
54144;BME280;40050;47.324;18.792;2023-12-28T06:20:50;1010.68;;;3.66;70.87
54144;BME280;40050;47.324;18.792;2023-12-28T06:22:51;1010.65;;;3.65;70.69
54144;BME280;40050;47.324;18.792;2023-12-28T06:24:52;1010.57;;;3.60;70.60
54144;BME280;40050;47.324;18.792;2023-12-28T06:26:52;1010.67;;;3.64;70.48
54144;BME280;40050;47.324;18.792;2023-12-28T06:28:53;1010.72;;;3.62;70.37
54144;BME280;40050;47.324;18.792;2023-12-28T06:30:54;1010.71;;;3.58;70.48
54144;BME280;40050;47.324;18.792;2023-12-28T06:32:55;1010.77;;;3.59;70.65
54144;BME280;40050;47.324;18.792;2023-12-28T06:34:56;1010.73;;;3.56;70.86
54144;BME280;40050;47.324;18.792;2023-12-28T06:36:57;1010.67;;;3.51;71.19
54144;BME280;40050;47.324;18.792;2023-12-28T06:38:58;1010.73;;;3.51;71.63
54144;BME280;40050;47.324;18.792;2023-12-28T06:40:59;1010.76;;;3.48;71.97
54144;BME280;40050;47.324;18.792;2023-12-28T06:43:00;1010.77;;;3.46;71.99
54144;BME280;40050;47.324;18.792;2023-12-28T06:45:01;1010.93;;;3.51;71.66
54144;BME280;40050;47.324;18.792;2023-12-28T06:47:02;1011.02;;;3.52;71.44
54144;BME280;40050;47.324;18.792;2023-12-28T06:49:03;1011.02;;;3.52;71.50
54144;BME280;40050;47.324;18.792;2023-12-28T06:51:04;1010.98;;;3.51;71.34
54144;BME280;40050;47.324;18.792;2023-12-28T06:53:05;1011.05;;;3.52;71.29
54144;BME280;40050;47.324;18.792;2023-12-28T06:55:06;1011.12;;;3.52;71.53
54144;BME280;40050;47.324;18.792;2023-12-28T06:57:07;1011.10;;;3.49;71.41
54144;BME280;40050;47.324;18.792;2023-12-28T06:59:08;1011.10;;;3.50;71.58
54144;BME280;40050;47.324;18.792;2023-12-28T07:01:09;1011.13;;;3.49;71.71
54144;BME280;40050;47.324;18.792;2023-12-28T07:03:10;1011.13;;;3.51;71.82
54144;BME280;40050;47.324;18.792;2023-12-28T07:05:11;1011.12;;;3.49;72.00
54144;BME280;40050;47.324;18.792;2023-12-28T07:07:12;1011.14;;;3.54;72.19
54144;BME280;40050;47.324;18.792;2023-12-28T07:09:13;1011.00;;;3.51;72.34
54144;BME280;40050;47.324;18.792;2023-12-28T07:11:14;1010.99;;;3.55;72.37
54144;BME280;40050;47.324;18.792;2023-12-28T07:13:15;1011.00;;;3.57;72.44
54144;BME280;40050;47.324;18.792;2023-12-28T07:15:16;1011.11;;;3.61;73.01
54144;BME280;40050;47.324;18.792;2023-12-28T07:17:17;1011.01;;;3.62;72.82
54144;BME280;40050;47.324;18.792;2023-12-28T07:19:17;1011.09;;;3.68;73.22
54144;BME280;40050;47.324;18.792;2023-12-28T07:21:18;1011.02;;;3.66;73.50
54144;BME280;40050;47.324;18.792;2023-12-28T07:23:19;1011.15;;;3.68;73.65
54144;BME280;40050;47.324;18.792;2023-12-28T07:25:20;1011.11;;;3.72;73.74
54144;BME280;40050;47.324;18.792;2023-12-28T07:27:21;1011.10;;;3.75;73.86
54144;BME280;40050;47.324;18.792;2023-12-28T07:29:22;1011.10;;;3.78;73.96
54144;BME280;40050;47.324;18.792;2023-12-28T07:31:23;1011.10;;;3.79;73.96
54144;BME280;40050;47.324;18.792;2023-12-28T07:33:24;1011.09;;;3.83;73.89
54144;BME280;40050;47.324;18.792;2023-12-28T07:35:25;1011.18;;;3.91;73.59
54144;BME280;40050;47.324;18.792;2023-12-28T07:37:26;1011.25;;;3.95;73.29
54144;BME280;40050;47.324;18.792;2023-12-28T07:39:27;1011.34;;;4.00;73.24
54144;BME280;40050;47.324;18.792;2023-12-28T07:41:28;1011.30;;;4.00;73.42
54144;BME280;40050;47.324;18.792;2023-12-28T07:43:29;1011.28;;;4.06;73.43
54144;BME280;40050;47.324;18.792;2023-12-28T07:45:30;1011.32;;;4.11;73.21
54144;BME280;40050;47.324;18.792;2023-12-28T07:47:31;1011.30;;;4.15;72.95
54144;BME280;40050;47.324;18.792;2023-12-28T07:49:31;1011.30;;;4.19;73.12
54144;BME280;40050;47.324;18.792;2023-12-28T07:51:32;1011.22;;;4.23;73.35
54144;BME280;40050;47.324;18.792;2023-12-28T07:53:33;1011.31;;;4.28;73.62
54144;BME280;40050;47.324;18.792;2023-12-28T07:55:34;1011.29;;;4.31;73.83
54144;BME280;40050;47.324;18.792;2023-12-28T07:57:35;1011.30;;;4.40;74.08
54144;BME280;40050;47.324;18.792;2023-12-28T07:59:36;1011.38;;;4.53;74.19
54144;BME280;40050;47.324;18.792;2023-12-28T08:01:37;1011.33;;;4.66;74.99
54144;BME280;40050;47.324;18.792;2023-12-28T08:03:38;1011.21;;;4.74;74.63
54144;BME280;40050;47.324;18.792;2023-12-28T08:05:39;1011.26;;;4.87;74.26
54144;BME280;40050;47.324;18.792;2023-12-28T08:07:40;1011.23;;;4.96;74.05
54144;BME280;40050;47.324;18.792;2023-12-28T08:09:40;1011.21;;;5.06;73.71
54144;BME280;40050;47.324;18.792;2023-12-28T08:11:41;1011.21;;;5.17;73.45
54144;BME280;40050;47.324;18.792;2023-12-28T08:13:42;1011.21;;;5.31;73.35
54144;BME280;40050;47.324;18.792;2023-12-28T08:15:43;1011.20;;;5.42;73.05
54144;BME280;40050;47.324;18.792;2023-12-28T08:17:44;1011.17;;;5.58;72.74
54144;BME280;40050;47.324;18.792;2023-12-28T08:19:45;1011.14;;;5.75;72.58
54144;BME280;40050;47.324;18.792;2023-12-28T08:21:46;1011.22;;;5.96;72.50
54144;BME280;40050;47.324;18.792;2023-12-28T08:23:47;1011.21;;;6.11;71.06
54144;BME280;40050;47.324;18.792;2023-12-28T08:25:48;1011.23;;;6.27;70.68
54144;BME280;40050;47.324;18.792;2023-12-28T08:27:48;1011.19;;;6.43;69.82
54144;BME280;40050;47.324;18.792;2023-12-28T08:29:49;1011.22;;;6.59;69.42
54144;BME280;40050;47.324;18.792;2023-12-28T08:31:50;1011.25;;;6.73;68.82
54144;BME280;40050;47.324;18.792;2023-12-28T08:33:51;1011.27;;;6.86;68.89
54144;BME280;40050;47.324;18.792;2023-12-28T08:35:52;1011.33;;;7.02;68.10
54144;BME280;40050;47.324;18.792;2023-12-28T08:37:53;1011.37;;;7.10;67.35
54144;BME280;40050;47.324;18.792;2023-12-28T08:39:54;1011.40;;;7.18;67.33
54144;BME280;40050;47.324;18.792;2023-12-28T08:41:55;1011.45;;;7.28;67.01
54144;BME280;40050;47.324;18.792;2023-12-28T08:43:56;1011.51;;;7.54;69.59
54144;BME280;40050;47.324;18.792;2023-12-28T08:45:57;1011.52;;;7.77;70.40
54144;BME280;40050;47.324;18.792;2023-12-28T08:47:58;1011.54;;;7.98;68.92
54144;BME280;40050;47.324;18.792;2023-12-28T08:49:59;1011.51;;;8.11;66.05
54144;BME280;40050;47.324;18.792;2023-12-28T08:52:00;1011.51;;;8.22;65.46
54144;BME280;40050;47.324;18.792;2023-12-28T08:54:01;1011.45;;;8.33;64.43
54144;BME280;40050;47.324;18.792;2023-12-28T08:56:01;1011.39;;;8.37;63.97
54144;BME280;40050;47.324;18.792;2023-12-28T08:58:02;1011.38;;;8.48;64.02
54144;BME280;40050;47.324;18.792;2023-12-28T09:00:04;1011.44;;;8.60;63.74
54144;BME280;40050;47.324;18.792;2023-12-28T09:02:05;1011.36;;;8.73;63.79
54144;BME280;40050;47.324;18.792;2023-12-28T09:04:06;1011.36;;;8.93;63.59
54144;BME280;40050;47.324;18.792;2023-12-28T09:06:07;1011.34;;;9.09;63.80
54144;BME280;40050;47.324;18.792;2023-12-28T09:08:08;1011.39;;;9.23;62.98
54144;BME280;40050;47.324;18.792;2023-12-28T09:10:10;1011.38;;;9.33;62.65
54144;BME280;40050;47.324;18.792;2023-12-28T09:12:11;1011.42;;;9.44;62.42
54144;BME280;40050;47.324;18.792;2023-12-28T09:14:12;1011.35;;;9.49;61.52
54144;BME280;40050;47.324;18.792;2023-12-28T09:16:13;1011.43;;;9.64;62.29
54144;BME280;40050;47.324;18.792;2023-12-28T09:18:14;1011.32;;;9.79;61.41
54144;BME280;40050;47.324;18.792;2023-12-28T09:20:15;1011.32;;;9.92;61.60
54144;BME280;40050;47.324;18.792;2023-12-28T09:22:16;1011.26;;;10.08;61.19
54144;BME280;40050;47.324;18.792;2023-12-28T09:24:17;1011.21;;;10.24;60.83
54144;BME280;40050;47.324;18.792;2023-12-28T09:26:18;1011.18;;;10.36;60.02
54144;BME280;40050;47.324;18.792;2023-12-28T09:28:19;1011.10;;;10.21;59.45
54144;BME280;40050;47.324;18.792;2023-12-28T09:30:20;1011.06;;;10.31;59.73
54144;BME280;40050;47.324;18.792;2023-12-28T09:32:21;1010.98;;;10.30;58.83
54144;BME280;40050;47.324;18.792;2023-12-28T09:34:21;1010.98;;;10.29;59.46
54144;BME280;40050;47.324;18.792;2023-12-28T09:36:22;1011.03;;;10.37;59.54
54144;BME280;40050;47.324;18.792;2023-12-28T09:38:23;1011.03;;;10.47;59.30
54144;BME280;40050;47.324;18.792;2023-12-28T09:40:24;1010.96;;;10.60;59.04
54144;BME280;40050;47.324;18.792;2023-12-28T09:42:25;1010.82;;;10.63;58.54
54144;BME280;40050;47.324;18.792;2023-12-28T09:44:27;1010.78;;;10.65;58.21
54144;BME280;40050;47.324;18.792;2023-12-28T09:46:29;1010.73;;;10.65;58.46
54144;BME280;40050;47.324;18.792;2023-12-28T09:48:30;1010.74;;;10.71;58.71
54144;BME280;40050;47.324;18.792;2023-12-28T09:50:32;1010.79;;;10.77;58.62
54144;BME280;40050;47.324;18.792;2023-12-28T09:52:33;1010.82;;;10.88;58.79
54144;BME280;40050;47.324;18.792;2023-12-28T09:54:34;1010.77;;;11.00;58.84
54144;BME280;40050;47.324;18.792;2023-12-28T09:56:35;1010.76;;;11.17;58.53
54144;BME280;40050;47.324;18.792;2023-12-28T09:58:37;1010.65;;;11.32;58.26
54144;BME280;40050;47.324;18.792;2023-12-28T10:00:38;1010.62;;;11.45;57.92
54144;BME280;40050;47.324;18.792;2023-12-28T10:02:40;1010.59;;;11.47;57.16
54144;BME280;40050;47.324;18.792;2023-12-28T10:04:43;1010.50;;;11.50;57.49
54144;BME280;40050;47.324;18.792;2023-12-28T10:06:44;1010.39;;;11.41;57.28
54144;BME280;40050;47.324;18.792;2023-12-28T10:08:45;1010.37;;;11.44;57.29
54144;BME280;40050;47.324;18.792;2023-12-28T10:10:46;1010.38;;;11.51;57.48
54144;BME280;40050;47.324;18.792;2023-12-28T10:12:47;1010.37;;;11.58;56.62
54144;BME280;40050;47.324;18.792;2023-12-28T10:14:50;1010.31;;;11.53;56.82
54144;BME280;40050;47.324;18.792;2023-12-28T10:16:51;1010.32;;;11.55;56.77
54144;BME280;40050;47.324;18.792;2023-12-28T10:18:52;1010.33;;;11.56;56.31
54144;BME280;40050;47.324;18.792;2023-12-28T10:20:53;1010.27;;;11.53;56.41
54144;BME280;40050;47.324;18.792;2023-12-28T10:22:54;1010.20;;;11.60;56.53
54144;BME280;40050;47.324;18.792;2023-12-28T10:24:55;1010.24;;;11.67;56.37
54144;BME280;40050;47.324;18.792;2023-12-28T10:26:56;1010.24;;;11.71;56.40
54144;BME280;40050;47.324;18.792;2023-12-28T10:28:59;1010.23;;;11.68;56.74
54144;BME280;40050;47.324;18.792;2023-12-28T10:31:00;1010.23;;;11.75;56.49
54144;BME280;40050;47.324;18.792;2023-12-28T10:33:04;1010.16;;;11.84;56.47
54144;BME280;40050;47.324;18.792;2023-12-28T10:35:05;1010.10;;;11.63;56.22
54144;BME280;40050;47.324;18.792;2023-12-28T10:37:06;1010.05;;;11.53;56.06
54144;BME280;40050;47.324;18.792;2023-12-28T10:39:08;1009.97;;;11.55;56.39
54144;BME280;40050;47.324;18.792;2023-12-28T10:41:10;1010.01;;;11.59;56.56
54144;BME280;40050;47.324;18.792;2023-12-28T10:43:14;1009.97;;;11.49;56.36
54144;BME280;40050;47.324;18.792;2023-12-28T10:45:16;1009.96;;;11.52;56.73
54144;BME280;40050;47.324;18.792;2023-12-28T10:47:17;1010.04;;;11.55;56.92
54144;BME280;40050;47.324;18.792;2023-12-28T10:49:20;1009.99;;;11.61;57.31
54144;BME280;40050;47.324;18.792;2023-12-28T10:51:22;1009.88;;;11.72;56.80
54144;BME280;40050;47.324;18.792;2023-12-28T10:55:44;1009.85;;;11.49;56.66
54144;BME280;40050;47.324;18.792;2023-12-28T11:00:17;1009.93;;;11.48;56.97